sensor_id;sensor_type;location;lat;lon;timestamp;pressure;altitude;pressure_sealevel;temperature;humidity
77079;BME280;66004;55.096;38.760;2023-04-12T00:01:02;100308.44;;;4.47;63.38
77079;BME280;66004;55.096;38.760;2023-04-12T00:03:27;100315.06;;;4.51;63.07
77079;BME280;66004;55.096;38.760;2023-04-12T00:05:54;100314.00;;;4.47;63.43
77079;BME280;66004;55.096;38.760;2023-04-12T00:08:23;100317.91;;;4.46;63.56
77079;BME280;66004;55.096;38.760;2023-04-12T00:10:51;100303.19;;;4.40;63.49
77079;BME280;66004;55.096;38.760;2023-04-12T00:13:18;100315.72;;;4.43;63.86
77079;BME280;66004;55.096;38.760;2023-04-12T00:15:44;100306.56;;;4.37;64.02
77079;BME280;66004;55.096;38.760;2023-04-12T00:18:09;100310.75;;;4.35;63.80
77079;BME280;66004;55.096;38.760;2023-04-12T00:20:35;100317.50;;;4.28;63.66
77079;BME280;66004;55.096;38.760;2023-04-12T00:23:00;100315.28;;;4.25;63.52
77079;BME280;66004;55.096;38.760;2023-04-12T00:25:26;100304.22;;;4.20;64.04
77079;BME280;66004;55.096;38.760;2023-04-12T00:27:52;100308.94;;;4.20;64.13
77079;BME280;66004;55.096;38.760;2023-04-12T00:30:17;100294.28;;;4.09;64.24
77079;BME280;66004;55.096;38.760;2023-04-12T00:32:43;100302.88;;;4.13;64.45
77079;BME280;66004;55.096;38.760;2023-04-12T00:35:08;100298.72;;;4.10;64.60
77079;BME280;66004;55.096;38.760;2023-04-12T00:37:34;100319.91;;;4.06;64.76
77079;BME280;66004;55.096;38.760;2023-04-12T00:40:01;100315.50;;;4.00;65.16
77079;BME280;66004;55.096;38.760;2023-04-12T00:42:27;100309.44;;;3.93;64.84
77079;BME280;66004;55.096;38.760;2023-04-12T00:44:52;100311.69;;;3.90;64.90
77079;BME280;66004;55.096;38.760;2023-04-12T00:47:18;100310.59;;;3.86;64.61
77079;BME280;66004;55.096;38.760;2023-04-12T00:49:44;100305.59;;;3.83;64.96
77079;BME280;66004;55.096;38.760;2023-04-12T00:52:11;100306.16;;;3.80;64.73
77079;BME280;66004;55.096;38.760;2023-04-12T00:54:40;100304.53;;;3.79;64.86
77079;BME280;66004;55.096;38.760;2023-04-12T00:57:06;100307.88;;;3.76;64.76
77079;BME280;66004;55.096;38.760;2023-04-12T00:59:32;100310.38;;;3.73;64.61
77079;BME280;66004;55.096;38.760;2023-04-12T01:01:58;100295.69;;;3.67;64.97
77079;BME280;66004;55.096;38.760;2023-04-12T01:04:24;100311.28;;;3.68;64.88
77079;BME280;66004;55.096;38.760;2023-04-12T01:09:53;100302.94;;;3.63;64.71
77079;BME280;66004;55.096;38.760;2023-04-12T01:12:45;100299.66;;;3.56;64.64
77079;BME280;66004;55.096;38.760;2023-04-12T01:15:15;100292.72;;;3.48;64.63
77079;BME280;66004;55.096;38.760;2023-04-12T01:18:03;100283.63;;;3.37;64.86
77079;BME280;66004;55.096;38.760;2023-04-12T01:20:38;100305.28;;;3.40;65.03
77079;BME280;66004;55.096;38.760;2023-04-12T01:23:21;100304.75;;;3.38;65.14
77079;BME280;66004;55.096;38.760;2023-04-12T01:26:52;100297.53;;;3.37;65.54
77079;BME280;66004;55.096;38.760;2023-04-12T01:28:57;100282.56;;;3.28;65.30
77079;BME280;66004;55.096;38.760;2023-04-12T01:31:24;100283.66;;;3.27;65.47
77079;BME280;66004;55.096;38.760;2023-04-12T01:33:51;100303.66;;;3.34;65.56
77079;BME280;66004;55.096;38.760;2023-04-12T01:36:20;100293.66;;;3.33;65.60
77079;BME280;66004;55.096;38.760;2023-04-12T01:38:48;100297.00;;;3.30;65.74
77079;BME280;66004;55.096;38.760;2023-04-12T01:41:14;100285.31;;;3.33;65.60
77079;BME280;66004;55.096;38.760;2023-04-12T01:43:44;100280.00;;;3.37;65.57
77079;BME280;66004;55.096;38.760;2023-04-12T01:46:12;100272.00;;;3.25;65.54
77079;BME280;66004;55.096;38.760;2023-04-12T01:48:39;100292.00;;;3.27;65.49
77079;BME280;66004;55.096;38.760;2023-04-12T01:51:24;100288.16;;;3.23;65.78
77079;BME280;66004;55.096;38.760;2023-04-12T01:53:59;100291.47;;;3.20;65.40
77079;BME280;66004;55.096;38.760;2023-04-12T01:56:30;100288.72;;;3.20;65.65
77079;BME280;66004;55.096;38.760;2023-04-12T01:58:59;100279.28;;;3.16;65.68
77079;BME280;66004;55.096;38.760;2023-04-12T02:01:25;100281.78;;;3.17;65.72
77079;BME280;66004;55.096;38.760;2023-04-12T02:03:54;100277.03;;;3.18;66.03
77079;BME280;66004;55.096;38.760;2023-04-12T02:06:23;100274.84;;;3.15;65.89
77079;BME280;66004;55.096;38.760;2023-04-12T02:08:56;100272.91;;;3.15;66.15
77079;BME280;66004;55.096;38.760;2023-04-12T02:11:22;100268.72;;;3.12;66.11
77079;BME280;66004;55.096;38.760;2023-04-12T02:13:48;100282.94;;;3.11;66.43
77079;BME280;66004;55.096;38.760;2023-04-12T02:16:13;100279.88;;;3.07;66.28
77079;BME280;66004;55.096;38.760;2023-04-12T02:18:39;100269.31;;;3.04;66.25
77079;BME280;66004;55.096;38.760;2023-04-12T02:21:06;100278.22;;;3.01;66.41
77079;BME280;66004;55.096;38.760;2023-04-12T02:23:31;100275.47;;;2.96;67.02
77079;BME280;66004;55.096;38.760;2023-04-12T02:25:57;100272.97;;;3.00;66.94
77079;BME280;66004;55.096;38.760;2023-04-12T02:28:22;100262.69;;;2.90;66.85
77079;BME280;66004;55.096;38.760;2023-04-12T02:30:48;100273.81;;;2.95;67.12
77079;BME280;66004;55.096;38.760;2023-04-12T02:33:17;100280.44;;;2.99;67.24
77079;BME280;66004;55.096;38.760;2023-04-12T02:35:46;100267.16;;;2.91;67.28
77079;BME280;66004;55.096;38.760;2023-04-12T02:38:12;100277.13;;;2.97;67.47
77079;BME280;66004;55.096;38.760;2023-04-12T02:40:38;100272.72;;;2.91;67.12
77079;BME280;66004;55.096;38.760;2023-04-12T02:43:07;100273.25;;;2.93;66.92
77079;BME280;66004;55.096;38.760;2023-04-12T02:45:33;100272.72;;;2.91;66.98
77079;BME280;66004;55.096;38.760;2023-04-12T02:47:59;100274.63;;;2.96;67.03
77079;BME280;66004;55.096;38.760;2023-04-12T02:52:36;100280.50;;;2.94;66.62
77079;BME280;66004;55.096;38.760;2023-04-12T02:55:01;100290.47;;;2.95;66.81
77079;BME280;66004;55.096;38.760;2023-04-12T02:57:27;100290.47;;;2.95;67.04
77079;BME280;66004;55.096;38.760;2023-04-12T02:59:53;100296.03;;;2.95;67.04
77079;BME280;66004;55.096;38.760;2023-04-12T03:02:22;100289.94;;;2.88;66.88
77079;BME280;66004;55.096;38.760;2023-04-12T03:04:48;100293.84;;;2.87;67.02
77079;BME280;66004;55.096;38.760;2023-04-12T03:07:19;100293.03;;;2.86;66.88
77079;BME280;66004;55.096;38.760;2023-04-12T03:09:49;100293.84;;;2.87;66.93
77079;BME280;66004;55.096;38.760;2023-04-12T03:12:14;100296.63;;;2.92;66.73
77079;BME280;66004;55.096;38.760;2023-04-12T03:14:41;100284.34;;;2.98;66.59
77079;BME280;66004;55.096;38.760;2023-04-12T03:17:07;100280.44;;;2.99;66.50
77079;BME280;66004;55.096;38.760;2023-04-12T03:19:32;100301.25;;;3.12;66.37
77079;BME280;66004;55.096;38.760;2023-04-12T03:22:00;100288.16;;;3.18;66.46
77079;BME280;66004;55.096;38.760;2023-04-12T03:24:26;100299.53;;;3.26;66.39
77079;BME280;66004;55.096;38.760;2023-04-12T03:26:53;100287.53;;;3.31;66.19
77079;BME280;66004;55.096;38.760;2023-04-12T03:29:19;100290.00;;;3.43;66.07
77079;BME280;66004;55.096;38.760;2023-04-12T03:31:44;100287.44;;;3.51;66.18
77079;BME280;66004;55.096;38.760;2023-04-12T03:34:10;100289.59;;;3.60;66.12
77079;BME280;66004;55.096;38.760;2023-04-12T03:36:36;100286.81;;;3.60;66.16
77079;BME280;66004;55.096;38.760;2023-04-12T03:39:02;100291.19;;;3.71;65.83
77079;BME280;66004;55.096;38.760;2023-04-12T03:41:27;100288.97;;;3.73;65.83
77079;BME280;66004;55.096;38.760;2023-04-12T03:43:53;100293.94;;;3.81;65.35
77079;BME280;66004;55.096;38.760;2023-04-12T03:46:20;100290.81;;;3.88;64.98
77079;BME280;66004;55.096;38.760;2023-04-12T03:48:45;100288.00;;;3.93;64.73
77079;BME280;66004;55.096;38.760;2023-04-12T03:51:11;100279.34;;;3.95;64.94
77079;BME280;66004;55.096;38.760;2023-04-12T03:53:37;100288.19;;;4.07;64.71
77079;BME280;66004;55.096;38.760;2023-04-12T03:56:03;100296.44;;;4.17;64.45
77079;BME280;66004;55.096;38.760;2023-04-12T03:58:29;100285.00;;;4.19;64.36
77079;BME280;66004;55.096;38.760;2023-04-12T04:00:55;100299.09;;;4.33;63.77
77079;BME280;66004;55.096;38.760;2023-04-12T04:03:21;100292.34;;;4.39;63.66
77079;BME280;66004;55.096;38.760;2023-04-12T04:05:51;100307.00;;;4.49;63.50
77079;BME280;66004;55.096;38.760;2023-04-12T04:08:17;100297.19;;;4.57;63.25
77079;BME280;66004;55.096;38.760;2023-04-12T04:10:42;100296.59;;;4.60;62.95
77079;BME280;66004;55.096;38.760;2023-04-12T04:13:08;100302.06;;;4.71;63.16
77079;BME280;66004;55.096;38.760;2023-04-12T04:15:34;100298.41;;;4.75;62.96
77079;BME280;66004;55.096;38.760;2023-04-12T04:17:59;100304.09;;;4.89;62.66
77079;BME280;66004;55.096;38.760;2023-04-12T04:20:25;100297.31;;;4.95;62.73
77079;BME280;66004;55.096;38.760;2023-04-12T04:22:51;100306.13;;;5.07;62.68
77079;BME280;66004;55.096;38.760;2023-04-12T04:25:18;100299.28;;;5.19;62.33
77079;BME280;66004;55.096;38.760;2023-04-12T04:27:44;100304.44;;;5.31;62.33
77079;BME280;66004;55.096;38.760;2023-04-12T04:30:12;100289.84;;;5.39;61.96
77079;BME280;66004;55.096;38.760;2023-04-12T04:32:39;100302.81;;;5.68;61.57
77079;BME280;66004;55.096;38.760;2023-04-12T04:35:06;100299.22;;;6.05;61.11
77079;BME280;66004;55.096;38.760;2023-04-12T04:37:31;100301.59;;;6.63;59.73
77079;BME280;66004;55.096;38.760;2023-04-12T04:40:00;100298.31;;;7.17;58.65
77079;BME280;66004;55.096;38.760;2023-04-12T04:42:33;100293.28;;;7.69;57.68
77079;BME280;66004;55.096;38.760;2023-04-12T04:44:59;100295.66;;;7.98;57.12
77079;BME280;66004;55.096;38.760;2023-04-12T04:47:27;100277.84;;;7.94;57.32
77079;BME280;66004;55.096;38.760;2023-04-12T04:49:55;100296.66;;;8.16;57.58
77079;BME280;66004;55.096;38.760;2023-04-12T04:52:22;100304.47;;;8.28;57.50
77079;BME280;66004;55.096;38.760;2023-04-12T04:54:48;100296.28;;;8.54;56.80
77079;BME280;66004;55.096;38.760;2023-04-12T04:57:13;100287.56;;;8.87;56.00
77079;BME280;66004;55.096;38.760;2023-04-12T04:59:39;100292.25;;;9.09;55.89
77079;BME280;66004;55.096;38.760;2023-04-12T05:02:05;100285.00;;;9.17;55.78
77079;BME280;66004;55.096;38.760;2023-04-12T05:04:30;100294.28;;;9.26;55.36
77079;BME280;66004;55.096;38.760;2023-04-12T05:06:56;100300.75;;;9.27;54.81
77079;BME280;66004;55.096;38.760;2023-04-12T05:09:21;100301.44;;;9.41;54.67
77079;BME280;66004;55.096;38.760;2023-04-12T05:11:46;100306.94;;;9.64;54.39
77079;BME280;66004;55.096;38.760;2023-04-12T05:14:12;100312.31;;;10.00;53.43
77079;BME280;66004;55.096;38.760;2023-04-12T05:16:37;100309.34;;;10.40;52.54
77079;BME280;66004;55.096;38.760;2023-04-12T05:19:03;100304.44;;;10.84;51.39
77079;BME280;66004;55.096;38.760;2023-04-12T05:21:28;100302.63;;;11.27;50.26
77079;BME280;66004;55.096;38.760;2023-04-12T05:23:54;100303.16;;;11.50;49.33
77079;BME280;66004;55.096;38.760;2023-04-12T05:26:19;100300.94;;;11.64;48.43
77079;BME280;66004;55.096;38.760;2023-04-12T05:28:46;100305.78;;;11.85;47.76
77079;BME280;66004;55.096;38.760;2023-04-12T05:31:11;100301.78;;;12.28;46.89
77079;BME280;66004;55.096;38.760;2023-04-12T05:33:36;100305.25;;;12.67;45.74
77079;BME280;66004;55.096;38.760;2023-04-12T05:36:02;100302.25;;;12.97;44.26
77079;BME280;66004;55.096;38.760;2023-04-12T05:38:28;100293.31;;;13.07;44.48
77079;BME280;66004;55.096;38.760;2023-04-12T05:40:54;100310.03;;;13.00;44.22
77079;BME280;66004;55.096;38.760;2023-04-12T05:43:19;100298.97;;;13.07;44.18
77079;BME280;66004;55.096;38.760;2023-04-12T05:45:45;100297.84;;;13.33;44.01
77079;BME280;66004;55.096;38.760;2023-04-12T05:48:10;100297.03;;;13.44;43.61
77079;BME280;66004;55.096;38.760;2023-04-12T05:50:36;100292.22;;;13.45;43.03
77079;BME280;66004;55.096;38.760;2023-04-12T05:53:01;100291.03;;;13.58;43.04
77079;BME280;66004;55.096;38.760;2023-04-12T05:55:28;100296.38;;;14.00;42.13
77079;BME280;66004;55.096;38.760;2023-04-12T05:57:54;100295.31;;;14.33;41.39
77079;BME280;66004;55.096;38.760;2023-04-12T06:00:19;100286.63;;;14.54;40.41
77079;BME280;66004;55.096;38.760;2023-04-12T06:02:47;100296.09;;;14.74;39.78
77079;BME280;66004;55.096;38.760;2023-04-12T06:05:15;100296.97;;;15.07;39.42
77079;BME280;66004;55.096;38.760;2023-04-12T06:07:44;100295.44;;;15.41;39.06
77079;BME280;66004;55.096;38.760;2023-04-12T06:10:14;100295.03;;;15.58;37.82
77079;BME280;66004;55.096;38.760;2023-04-12T06:12:41;100291.94;;;15.64;37.37
77079;BME280;66004;55.096;38.760;2023-04-12T06:15:07;100285.91;;;15.49;37.56
77079;BME280;66004;55.096;38.760;2023-04-12T06:17:33;100290.47;;;15.54;37.00
77079;BME280;66004;55.096;38.760;2023-04-12T06:19:58;100298.59;;;15.55;36.88
77079;BME280;66004;55.096;38.760;2023-04-12T06:22:24;100300.72;;;15.58;37.02
77079;BME280;66004;55.096;38.760;2023-04-12T06:24:49;100300.53;;;15.67;36.41
77079;BME280;66004;55.096;38.760;2023-04-12T06:27:15;100299.97;;;15.62;36.34
77079;BME280;66004;55.096;38.760;2023-04-12T06:29:40;100299.22;;;15.65;36.17
77079;BME280;66004;55.096;38.760;2023-04-12T06:32:06;100294.84;;;15.83;36.02
77079;BME280;66004;55.096;38.760;2023-04-12T06:34:32;100295.16;;;15.98;35.19
77079;BME280;66004;55.096;38.760;2023-04-12T06:36:57;100294.41;;;16.01;35.37
77079;BME280;66004;55.096;38.760;2023-04-12T06:39:23;100294.25;;;15.93;34.88
77079;BME280;66004;55.096;38.760;2023-04-12T06:41:48;100283.81;;;15.98;34.61
77079;BME280;66004;55.096;38.760;2023-04-12T06:44:15;100300.50;;;16.19;33.86
77079;BME280;66004;55.096;38.760;2023-04-12T06:46:40;100295.06;;;16.29;33.83
77079;BME280;66004;55.096;38.760;2023-04-12T06:49:06;100301.78;;;16.41;33.18
77079;BME280;66004;55.096;38.760;2023-04-12T06:51:32;100293.25;;;16.41;33.60
77079;BME280;66004;55.096;38.760;2023-04-12T06:54:00;100299.06;;;16.28;33.34
77079;BME280;66004;55.096;38.760;2023-04-12T06:56:25;100293.84;;;16.11;33.46
77079;BME280;66004;55.096;38.760;2023-04-12T06:58:51;100290.44;;;15.70;33.48
77079;BME280;66004;55.096;38.760;2023-04-12T07:01:17;100292.28;;;15.46;33.75
77079;BME280;66004;55.096;38.760;2023-04-12T07:03:43;100285.53;;;15.35;34.14
77079;BME280;66004;55.096;38.760;2023-04-12T07:06:08;100293.34;;;15.22;34.40
77079;BME280;66004;55.096;38.760;2023-04-12T07:08:35;100301.38;;;15.20;34.19
77079;BME280;66004;55.096;38.760;2023-04-12T07:11:01;100288.47;;;15.23;34.49
77079;BME280;66004;55.096;38.760;2023-04-12T07:13:27;100287.19;;;15.36;34.29
77079;BME280;66004;55.096;38.760;2023-04-12T07:15:53;100285.72;;;15.42;34.61
77079;BME280;66004;55.096;38.760;2023-04-12T07:18:19;100278.75;;;15.55;33.73
77079;BME280;66004;55.096;38.760;2023-04-12T07:20:46;100295.22;;;15.66;33.62
77079;BME280;66004;55.096;38.760;2023-04-12T07:23:12;100282.66;;;15.67;32.79
77079;BME280;66004;55.096;38.760;2023-04-12T07:25:38;100283.88;;;15.66;32.42
77079;BME280;66004;55.096;38.760;2023-04-12T07:28:04;100281.19;;;15.73;32.63
77079;BME280;66004;55.096;38.760;2023-04-12T07:30:30;100277.72;;;15.80;31.95
77079;BME280;66004;55.096;38.760;2023-04-12T07:32:55;100272.41;;;15.78;31.69
77079;BME280;66004;55.096;38.760;2023-04-12T07:35:21;100269.97;;;15.76;31.28
77079;BME280;66004;55.096;38.760;2023-04-12T07:37:46;100275.25;;;15.78;31.15
77079;BME280;66004;55.096;38.760;2023-04-12T07:40:12;100255.69;;;15.73;30.33
77079;BME280;66004;55.096;38.760;2023-04-12T07:42:37;100265.56;;;15.79;29.93
77079;BME280;66004;55.096;38.760;2023-04-12T07:45:03;100258.31;;;15.82;29.68
77079;BME280;66004;55.096;38.760;2023-04-12T07:47:29;100268.41;;;15.79;29.19
77079;BME280;66004;55.096;38.760;2023-04-12T07:49:54;100264.06;;;15.85;28.83
77079;BME280;66004;55.096;38.760;2023-04-12T07:52:21;100260.19;;;15.93;28.78
77079;BME280;66004;55.096;38.760;2023-04-12T07:54:47;100263.63;;;16.03;28.89
77079;BME280;66004;55.096;38.760;2023-04-12T07:57:12;100265.13;;;15.96;28.44
77079;BME280;66004;55.096;38.760;2023-04-12T07:59:38;100263.50;;;15.95;28.40
77079;BME280;66004;55.096;38.760;2023-04-12T08:02:03;100250.50;;;15.94;27.97
77079;BME280;66004;55.096;38.760;2023-04-12T08:04:30;100257.97;;;16.03;28.27
77079;BME280;66004;55.096;38.760;2023-04-12T08:06:56;100256.34;;;16.02;27.71
77079;BME280;66004;55.096;38.760;2023-04-12T08:09:21;100255.00;;;15.95;27.41
77079;BME280;66004;55.096;38.760;2023-04-12T08:11:48;100250.22;;;16.00;27.56
77079;BME280;66004;55.096;38.760;2023-04-12T08:14:14;100252.06;;;15.92;27.60
77079;BME280;66004;55.096;38.760;2023-04-12T08:16:39;100245.72;;;15.99;27.14
77079;BME280;66004;55.096;38.760;2023-04-12T08:19:05;100232.81;;;16.01;27.70
77079;BME280;66004;55.096;38.760;2023-04-12T08:21:31;100243.31;;;16.01;27.20
77079;BME280;66004;55.096;38.760;2023-04-12T08:23:58;100246.63;;;16.03;27.21
77079;BME280;66004;55.096;38.760;2023-04-12T08:26:24;100248.44;;;16.11;27.47
77079;BME280;66004;55.096;38.760;2023-04-12T08:28:51;100251.09;;;16.23;26.88
77079;BME280;66004;55.096;38.760;2023-04-12T08:31:17;100249.63;;;16.29;26.57
77079;BME280;66004;55.096;38.760;2023-04-12T08:33:42;100242.28;;;16.28;26.30
77079;BME280;66004;55.096;38.760;2023-04-12T08:36:08;100244.84;;;16.33;26.73
77079;BME280;66004;55.096;38.760;2023-04-12T08:38:36;100240.94;;;16.42;26.40
77079;BME280;66004;55.096;38.760;2023-04-12T08:41:03;100238.97;;;16.46;26.60
77079;BME280;66004;55.096;38.760;2023-04-12T08:43:31;100243.47;;;16.47;26.16
77079;BME280;66004;55.096;38.760;2023-04-12T08:45:58;100232.13;;;16.47;25.95
77079;BME280;66004;55.096;38.760;2023-04-12T08:48:25;100231.81;;;16.52;25.85
77079;BME280;66004;55.096;38.760;2023-04-12T09:03:00;100226.56;;;17.46;24.44
77079;BME280;66004;55.096;38.760;2023-04-12T09:05:29;100215.94;;;17.43;24.11
77079;BME280;66004;55.096;38.760;2023-04-12T09:07:56;100218.03;;;17.20;24.94
77079;BME280;66004;55.096;38.760;2023-04-12T09:10:33;100215.56;;;17.18;25.04
77079;BME280;66004;55.096;38.760;2023-04-12T09:12:59;100224.47;;;17.17;25.14
77079;BME280;66004;55.096;38.760;2023-04-12T09:15:25;100195.91;;;17.09;25.01
77079;BME280;66004;55.096;38.760;2023-04-12T09:18:09;100203.13;;;17.03;24.44
77079;BME280;66004;55.096;38.760;2023-04-12T09:20:36;100204.75;;;17.04;24.94
77079;BME280;66004;55.096;38.760;2023-04-12T09:23:19;100193.94;;;17.13;24.47
77079;BME280;66004;55.096;38.760;2023-04-12T09:25:45;100192.88;;;17.22;24.56
77079;BME280;66004;55.096;38.760;2023-04-12T09:28:25;100197.47;;;17.30;23.78
77079;BME280;66004;55.096;38.760;2023-04-12T09:30:52;100193.44;;;17.31;23.87
77079;BME280;66004;55.096;38.760;2023-04-12T09:33:23;100185.72;;;17.31;24.23
77079;BME280;66004;55.096;38.760;2023-04-12T09:36:00;100180.72;;;17.25;24.26
77079;BME280;66004;55.096;38.760;2023-04-12T09:38:27;100181.50;;;17.22;24.46
77079;BME280;66004;55.096;38.760;2023-04-12T09:40:52;100172.63;;;17.27;24.43
77079;BME280;66004;55.096;38.760;2023-04-12T09:43:18;100178.50;;;17.38;24.36
77079;BME280;66004;55.096;38.760;2023-04-12T09:45:44;100184.78;;;17.50;24.56
77079;BME280;66004;55.096;38.760;2023-04-12T09:48:18;100174.59;;;17.49;23.45
77079;BME280;66004;55.096;38.760;2023-04-12T09:50:44;100184.34;;;17.48;23.86
77079;BME280;66004;55.096;38.760;2023-04-12T09:53:16;100177.09;;;17.55;23.60
77079;BME280;66004;55.096;38.760;2023-04-12T09:55:43;100173.56;;;17.61;23.63
77079;BME280;66004;55.096;38.760;2023-04-12T09:58:09;100174.44;;;17.65;24.08
77079;BME280;66004;55.096;38.760;2023-04-12T10:00:35;100170.41;;;17.70;23.42
77079;BME280;66004;55.096;38.760;2023-04-12T10:03:02;100163.84;;;17.66;23.19
77079;BME280;66004;55.096;38.760;2023-04-12T10:05:27;100161.78;;;17.63;22.83
77079;BME280;66004;55.096;38.760;2023-04-12T10:07:53;100156.00;;;17.56;22.59
77079;BME280;66004;55.096;38.760;2023-04-12T10:10:20;100171.84;;;17.57;22.74
77079;BME280;66004;55.096;38.760;2023-04-12T10:12:46;100157.63;;;17.57;23.01
77079;BME280;66004;55.096;38.760;2023-04-12T10:15:13;100160.84;;;17.55;22.91
77079;BME280;66004;55.096;38.760;2023-04-12T10:17:52;100159.19;;;17.50;22.40
77079;BME280;66004;55.096;38.760;2023-04-12T10:20:19;100140.38;;;17.42;22.43
77079;BME280;66004;55.096;38.760;2023-04-12T10:22:47;100143.22;;;17.42;22.33
77079;BME280;66004;55.096;38.760;2023-04-12T10:25:21;100133.53;;;17.47;22.95
77079;BME280;66004;55.096;38.760;2023-04-12T10:27:47;100117.03;;;17.60;22.73
77079;BME280;66004;55.096;38.760;2023-04-12T10:35:30;100133.41;;;17.70;22.34
77079;BME280;66004;55.096;38.760;2023-04-12T10:38:13;100126.00;;;17.62;22.65
77079;BME280;66004;55.096;38.760;2023-04-12T10:41:06;100128.31;;;17.52;22.29
77079;BME280;66004;55.096;38.760;2023-04-12T10:43:32;100129.13;;;17.53;22.47
77079;BME280;66004;55.096;38.760;2023-04-12T10:45:58;100103.91;;;17.51;22.72
77079;BME280;66004;55.096;38.760;2023-04-12T10:48:38;100117.47;;;17.62;22.96
77079;BME280;66004;55.096;38.760;2023-04-12T10:51:20;100122.38;;;17.65;22.84
77079;BME280;66004;55.096;38.760;2023-04-12T10:59:02;100110.50;;;17.56;22.46
77079;BME280;66004;55.096;38.760;2023-04-12T11:01:28;100103.16;;;17.55;23.05
77079;BME280;66004;55.096;38.760;2023-04-12T11:14:49;100095.41;;;17.85;22.74
77079;BME280;66004;55.096;38.760;2023-04-12T11:19:55;100089.34;;;17.87;22.92
77079;BME280;66004;55.096;38.760;2023-04-12T11:22:23;100074.63;;;17.81;22.87
77079;BME280;66004;55.096;38.760;2023-04-12T11:24:53;100085.25;;;17.84;22.75
77079;BME280;66004;55.096;38.760;2023-04-12T11:27:20;100092.25;;;17.90;22.77
77079;BME280;66004;55.096;38.760;2023-04-12T11:29:57;100075.94;;;17.87;22.87
77079;BME280;66004;55.096;38.760;2023-04-12T11:32:27;100078.00;;;17.90;22.54
77079;BME280;66004;55.096;38.760;2023-04-12T11:34:54;100080.72;;;17.83;22.77
77079;BME280;66004;55.096;38.760;2023-04-12T11:37:21;100071.50;;;17.90;23.22
77079;BME280;66004;55.096;38.760;2023-04-12T11:39:51;100062.22;;;17.97;22.95
77079;BME280;66004;55.096;38.760;2023-04-12T11:42:23;100055.66;;;17.93;22.24
77079;BME280;66004;55.096;38.760;2023-04-12T11:44:50;100057.75;;;17.96;22.27
77079;BME280;66004;55.096;38.760;2023-04-12T11:47:20;100058.94;;;17.95;22.72
77079;BME280;66004;55.096;38.760;2023-04-12T11:49:54;100048.28;;;17.84;22.05
77079;BME280;66004;55.096;38.760;2023-04-12T11:52:21;100028.56;;;17.72;22.10
77079;BME280;66004;55.096;38.760;2023-04-12T11:54:52;100047.47;;;17.87;21.72
77079;BME280;66004;55.096;38.760;2023-04-12T11:57:20;100049.88;;;17.85;21.31
77079;BME280;66004;55.096;38.760;2023-04-12T11:59:47;100036.53;;;17.89;21.40
77079;BME280;66004;55.096;38.760;2023-04-12T12:02:15;100038.63;;;17.96;21.66
77079;BME280;66004;55.096;38.760;2023-04-12T12:04:43;100045.09;;;17.93;21.46
77079;BME280;66004;55.096;38.760;2023-04-12T12:07:11;100039.38;;;17.89;22.08
77079;BME280;66004;55.096;38.760;2023-04-12T12:09:38;100034.47;;;17.86;21.27
77079;BME280;66004;55.096;38.760;2023-04-12T12:12:04;100029.97;;;17.85;20.89
77079;BME280;66004;55.096;38.760;2023-04-12T12:14:33;100032.03;;;17.88;20.92
77079;BME280;66004;55.096;38.760;2023-04-12T12:16:59;100029.97;;;17.85;21.30
77079;BME280;66004;55.096;38.760;2023-04-12T12:19:32;100023.13;;;17.90;20.90
77079;BME280;66004;55.096;38.760;2023-04-12T12:22:24;100032.19;;;18.03;21.30
77079;BME280;66004;55.096;38.760;2023-04-12T12:24:54;100020.81;;;18.03;21.52
77079;BME280;66004;55.096;38.760;2023-04-12T12:27:34;100021.97;;;17.98;21.48
77079;BME280;66004;55.096;38.760;2023-04-12T12:30:00;100006.09;;;17.94;21.42
77079;BME280;66004;55.096;38.760;2023-04-12T12:32:34;99995.19;;;18.03;21.32
77079;BME280;66004;55.096;38.760;2023-04-12T12:35:01;99994.78;;;18.01;21.39
77079;BME280;66004;55.096;38.760;2023-04-12T12:37:28;100000.09;;;18.06;21.73
77079;BME280;66004;55.096;38.760;2023-04-12T12:40:08;99990.00;;;18.12;21.34
77079;BME280;66004;55.096;38.760;2023-04-12T12:42:50;99989.97;;;18.08;21.24
77079;BME280;66004;55.096;38.760;2023-04-12T12:45:18;99991.25;;;18.18;21.76
77079;BME280;66004;55.096;38.760;2023-04-12T12:48:05;99995.69;;;18.16;20.94
77079;BME280;66004;55.096;38.760;2023-04-12T12:50:33;99990.66;;;17.98;21.10
77079;BME280;66004;55.096;38.760;2023-04-12T12:52:59;99984.94;;;17.95;21.45
77079;BME280;66004;55.096;38.760;2023-04-12T12:55:26;99980.88;;;17.96;21.62
77079;BME280;66004;55.096;38.760;2023-04-12T12:57:53;99976.34;;;17.91;21.65
77079;BME280;66004;55.096;38.760;2023-04-12T13:00:22;99982.47;;;17.89;21.55
77079;BME280;66004;55.096;38.760;2023-04-12T13:02:49;99967.00;;;17.90;21.62
77079;BME280;66004;55.096;38.760;2023-04-12T13:05:19;99972.03;;;18.08;21.92
77079;BME280;66004;55.096;38.760;2023-04-12T13:07:45;99974.19;;;18.18;21.73
77079;BME280;66004;55.096;38.760;2023-04-12T13:10:11;99981.13;;;18.24;21.93
77079;BME280;66004;55.096;38.760;2023-04-12T13:12:37;99971.41;;;18.25;21.66
77079;BME280;66004;55.096;38.760;2023-04-12T13:15:03;99965.69;;;18.25;21.90
77079;BME280;66004;55.096;38.760;2023-04-12T13:17:29;99967.31;;;18.26;21.95
77079;BME280;66004;55.096;38.760;2023-04-12T13:19:56;99953.44;;;18.21;21.90
77079;BME280;66004;55.096;38.760;2023-04-12T13:22:21;99974.59;;;18.20;21.83
77079;BME280;66004;55.096;38.760;2023-04-12T13:24:47;99969.19;;;18.08;21.51
77079;BME280;66004;55.096;38.760;2023-04-12T13:27:13;99961.47;;;18.05;22.07
77079;BME280;66004;55.096;38.760;2023-04-12T13:29:39;99967.97;;;18.05;22.41